Time;durP1;ratioP1;P1;durP2;ratioP2;P2;SDS_P1;SDS_P2;PMS_P1;PMS_P2;Temp;Humidity;BMP_temperature;BMP_pressure;BME280_temperature;BME280_humidity;BME280_pressure;Samples;Min_cycle;Max_cycle;Signal;HPM_P1;HPM_P2
2023/09/20 00:02:13;;;;;;;6.90;4.63;;;;;;;19.02;68.31;97258.47;5050525;28;20200;-81
2023/09/20 00:04:42;;;;;;;5.57;4.07;;;;;;;18.49;70.31;97243.28;5049776;28;20266;-80
2023/09/20 00:07:10;;;;;;;7.27;4.50;;;;;;;18.11;71.68;97240.00;5050936;28;21032;-81
2023/09/20 00:09:38;;;;;;;6.23;4.93;;;;;;;18.00;71.98;97237.31;5048465;28;20261;-81
2023/09/20 00:12:06;;;;;;;6.27;5.00;;;;;;;18.08;72.14;97248.06;5030917;28;20208;-78
2023/09/20 00:14:34;;;;;;;6.43;4.53;;;;;;;18.31;70.89;97234.97;5029507;28;20686;-79
2023/09/20 00:17:01;;;;;;;6.50;4.67;;;;;;;18.72;69.90;97252.91;5030842;28;20252;-81
2023/09/20 00:19:28;;;;;;;7.37;4.83;;;;;;;18.93;69.35;97248.69;5030405;28;20228;-82
2023/09/20 00:21:55;;;;;;;7.77;4.93;;;;;;;18.94;68.59;97250.34;5029733;28;20202;-81
2023/09/20 00:24:22;;;;;;;5.00;4.50;;;;;;;18.87;69.08;97249.16;5049637;28;20702;-82
2023/09/20 00:26:49;;;;;;;6.97;5.00;;;;;;;18.86;69.03;97239.59;5049059;28;20195;-80
2023/09/20 00:29:16;;;;;;;7.97;4.67;;;;;;;18.89;69.00;97239.38;5050466;28;20687;-82
2023/09/20 00:31:44;;;;;;;7.93;4.50;;;;;;;19.06;69.06;97238.09;5048982;28;20688;-80
2023/09/20 00:34:11;;;;;;;7.03;4.47;;;;;;;19.06;68.35;97228.41;5049169;28;20267;-79
2023/09/20 00:36:38;;;;;;;5.90;4.73;;;;;;;19.28;67.83;97233.69;5049663;28;20282;-78
2023/09/20 00:39:06;;;;;;;6.30;5.13;;;;;;;19.08;67.34;97192.38;5048403;28;20635;-77
2023/09/20 00:41:33;;;;;;;5.37;4.60;;;;;;;19.13;68.42;97224.38;5049025;28;20300;-80
2023/09/20 00:44:00;;;;;;;5.93;4.60;;;;;;;18.98;68.84;97224.72;5047217;28;20229;-81
2023/09/20 00:46:29;;;;;;;6.90;5.10;;;;;;;18.45;70.66;97213.84;5050436;28;20275;-79
2023/09/20 00:48:56;;;;;;;8.87;4.97;;;;;;;17.88;72.28;97203.19;5048661;28;20282;-79
2023/09/20 00:51:26;;;;;;;9.43;6.53;;;;;;;17.66;73.71;97194.38;5048903;28;20192;-80
2023/09/20 00:53:57;;;;;;;6.67;5.27;;;;;;;17.59;74.04;97193.13;5049389;28;20196;-80
2023/09/20 00:56:24;;;;;;;6.13;5.10;;;;;;;17.40;74.19;97179.59;5049018;28;20586;-78
2023/09/20 00:58:55;;;;;;;7.43;5.50;;;;;;;17.15;75.28;97179.66;5049974;28;20685;-80
2023/09/20 01:01:26;;;;;;;7.57;5.43;;;;;;;17.11;75.68;97176.41;5047030;28;20208;-79
2023/09/20 01:03:55;;;;;;;7.13;5.30;;;;;;;17.14;76.01;97171.00;5048587;28;20226;-80
2023/09/20 01:06:26;;;;;;;5.90;5.10;;;;;;;17.11;75.34;97139.78;5046707;28;20268;-80
2023/09/20 01:08:55;;;;;;;5.80;4.40;;;;;;;17.31;75.06;97170.63;5049500;28;20203;-78
2023/09/20 01:11:24;;;;;;;8.17;4.90;;;;;;;17.66;73.44;97173.41;5048215;28;20876;-81
2023/09/20 01:13:52;;;;;;;5.60;4.63;;;;;;;17.60;73.14;97140.63;5047212;28;20287;-81
2023/09/20 01:16:19;;;;;;;7.50;4.73;;;;;;;17.80;73.07;97155.72;5049535;28;20246;-80
2023/09/20 01:18:47;;;;;;;6.43;4.67;;;;;;;17.79;72.62;97151.44;5048141;28;20214;-82
2023/09/20 01:21:15;;;;;;;8.70;4.97;;;;;;;17.76;72.46;97133.31;5048457;28;20206;-80
2023/09/20 01:23:42;;;;;;;6.73;4.83;;;;;;;18.24;71.29;97151.63;5048164;28;20210;-82
2023/09/20 01:26:11;;;;;;;6.70;5.10;;;;;;;18.22;71.17;97127.31;5048360;28;20226;-79
2023/09/20 01:28:39;;;;;;;7.33;4.73;;;;;;;18.49;70.65;97133.13;5049729;28;20577;-81
2023/09/20 01:31:07;;;;;;;6.90;4.90;;;;;;;18.80;69.73;97129.84;5048306;28;20752;-81
2023/09/20 01:33:35;;;;;;;6.37;4.97;;;;;;;18.97;69.06;97139.03;5049622;28;20683;-80
2023/09/20 01:36:05;;;;;;;7.70;4.80;;;;;;;18.94;68.83;97139.28;5047841;28;20228;-79
2023/09/20 01:38:34;;;;;;;7.10;4.70;;;;;;;19.12;68.03;97133.44;5049253;28;20620;-81
2023/09/20 01:41:03;;;;;;;6.97;4.83;;;;;;;19.18;68.17;97140.84;5048048;28;20236;-82
2023/09/20 01:43:31;;;;;;;7.43;5.43;;;;;;;19.20;68.08;97143.34;5048948;28;20268;-82
2023/09/20 01:45:58;;;;;;;8.77;4.93;;;;;;;19.42;67.50;97130.22;5047519;28;20229;-82
2023/09/20 01:48:26;;;;;;;11.10;4.90;;;;;;;19.49;67.70;97141.91;5046531;28;20197;-82
2023/09/20 01:50:54;;;;;;;9.07;4.67;;;;;;;19.32;68.66;97145.84;5047749;28;20860;-81
2023/09/20 01:53:24;;;;;;;6.03;4.93;;;;;;;19.23;68.79;97133.41;5047553;28;20706;-82
2023/09/20 01:55:52;;;;;;;8.03;4.77;;;;;;;19.07;69.70;97150.50;5048870;28;20195;-79
2023/09/20 01:58:19;;;;;;;8.80;5.20;;;;;;;19.06;70.22;97141.78;5046217;28;20196;-81
2023/09/20 02:00:49;;;;;;;5.60;4.23;;;;;;;19.02;70.41;97148.22;5047379;28;20680;-77
2023/09/20 02:03:17;;;;;;;6.70;5.57;;;;;;;18.93;70.13;97148.94;5048495;28;20794;-77
2023/09/20 02:05:49;;;;;;;8.27;5.23;;;;;;;18.91;70.05;97168.38;5047377;28;20325;-77
2023/09/20 02:08:18;;;;;;;7.20;5.37;;;;;;;18.69;71.47;97170.00;5048936;28;20236;-77
2023/09/20 02:10:46;;;;;;;8.03;5.30;;;;;;;18.50;71.52;97148.78;5047287;28;20211;-77
2023/09/20 02:13:16;;;;;;;8.73;5.23;;;;;;;18.56;70.63;97143.06;5048756;28;20637;-76
2023/09/20 02:15:45;;;;;;;5.80;4.90;;;;;;;18.64;70.88;97147.72;5046351;28;20196;-76
2023/09/20 02:18:12;;;;;;;6.70;4.87;;;;;;;18.48;70.81;97124.44;5045761;28;20231;-77
2023/09/20 02:20:40;;;;;;;5.50;4.70;;;;;;;18.76;70.62;97169.53;5047370;28;20196;-78
2023/09/20 02:23:12;;;;;;;7.40;4.90;;;;;;;18.62;70.40;97167.97;5046976;28;20216;-77
2023/09/20 02:25:43;;;;;;;8.07;5.47;;;;;;;18.57;70.93;97167.47;5048293;28;20274;-77
2023/09/20 02:28:11;;;;;;;7.17;4.67;;;;;;;18.24;72.02;97170.81;5046622;28;20201;-77
2023/09/20 02:30:39;;;;;;;8.50;5.53;;;;;;;18.13;72.30;97172.56;5048244;28;20199;-77
2023/09/20 02:33:08;;;;;;;7.97;5.37;;;;;;;17.98;73.29;97163.19;5046124;28;20226;-77
2023/09/20 02:35:39;;;;;;;6.80;5.10;;;;;;;17.57;74.37;97166.19;5047443;28;20217;-77
2023/09/20 02:38:07;;;;;;;6.10;4.93;;;;;;;17.39;75.31;97165.72;5047954;28;20667;-77
2023/09/20 02:40:35;;;;;;;8.07;5.60;;;;;;;17.33;75.60;97176.59;5046673;28;20649;-77
2023/09/20 02:43:12;;;;;;;5.63;4.77;;;;;;;17.47;75.47;97170.38;5046797;28;20658;-77
2023/09/20 02:45:40;;;;;;;10.80;6.00;;;;;;;17.37;75.35;97162.34;5046331;28;20977;-77
2023/09/20 02:48:08;;;;;;;7.17;5.33;;;;;;;17.21;76.50;97166.16;5046709;28;20205;-77
2023/09/20 02:50:36;;;;;;;7.83;5.93;;;;;;;17.28;76.29;97168.22;5045978;28;20191;-77
2023/09/20 02:53:05;;;;;;;7.17;5.80;;;;;;;17.24;76.52;97177.25;5045706;28;20700;-76
2023/09/20 02:55:34;;;;;;;8.70;5.47;;;;;;;17.49;75.29;97172.00;5047696;28;20207;-77
2023/09/20 02:58:01;;;;;;;9.80;5.33;;;;;;;17.63;74.67;97163.97;5046224;28;20653;-77
2023/09/20 03:00:31;;;;;;;7.80;5.73;;;;;;;17.61;75.04;97167.66;5046505;28;20231;-76
2023/09/20 03:03:01;;;;;;;7.13;5.57;;;;;;;17.43;75.39;97175.03;5044997;28;20284;-78
2023/09/20 03:05:35;;;;;;;9.83;5.97;;;;;;;17.40;75.87;97167.38;5046319;28;20276;-76
2023/09/20 03:08:11;;;;;;;8.17;5.87;;;;;;;17.53;75.49;97170.81;5046327;28;20289;-76
2023/09/20 03:10:43;;;;;;;9.40;5.77;;;;;;;17.47;75.47;97166.00;5044926;28;20670;-76
2023/09/20 03:13:16;;;;;;;7.60;5.67;;;;;;;17.55;75.06;97176.78;5047641;28;20202;-77
2023/09/20 03:15:45;;;;;;;5.97;5.27;;;;;;;17.54;75.42;97180.34;5044650;28;20193;-76
2023/09/20 03:18:15;;;;;;;9.10;6.07;;;;;;;17.36;75.75;97176.38;5046091;28;20242;-77
2023/09/20 03:20:49;;;;;;;7.20;5.63;;;;;;;17.40;75.91;97171.75;5045631;28;20723;-77
2023/09/20 03:23:17;;;;;;;7.37;5.07;;;;;;;17.48;75.75;97175.50;5045133;28;20691;-77
2023/09/20 03:25:45;;;;;;;10.60;5.70;;;;;;;17.66;75.32;97174.22;5045929;28;20239;-76
2023/09/20 03:28:19;;;;;;;10.00;5.03;;;;;;;17.79;74.52;97180.25;5044412;28;20261;-80
2023/09/20 03:30:47;;;;;;;10.07;5.17;;;;;;;17.75;73.72;97162.25;5046001;28;20604;-76
2023/09/20 03:33:15;;;;;;;6.83;5.20;;;;;;;17.78;74.21;97178.56;5045899;28;20199;-80
2023/09/20 03:35:44;;;;;;;5.63;4.57;;;;;;;17.41;75.10;97178.69;5045924;28;20596;-79
2023/09/20 03:38:12;;;;;;;8.03;5.47;;;;;;;17.29;75.39;97164.66;5047006;28;20222;-77
2023/09/20 03:40:41;;;;;;;9.93;5.80;;;;;;;17.26;76.22;97175.34;5044726;28;20281;-79
2023/09/20 03:43:08;;;;;;;8.67;6.07;;;;;;;17.07;76.56;97172.34;5046079;28;20206;-79
2023/09/20 03:45:41;;;;;;;7.47;5.17;;;;;;;17.14;77.21;97178.00;5044275;28;20297;-79
2023/09/20 03:48:09;;;;;;;8.47;5.70;;;;;;;17.01;76.96;97162.31;5045897;28;20199;-77
2023/09/20 03:50:38;;;;;;;6.27;5.20;;;;;;;17.34;75.80;97174.81;5044506;28;20207;-82
2023/09/20 03:53:06;;;;;;;7.93;5.10;;;;;;;17.58;75.10;97171.31;5046944;28;20207;-78
2023/09/20 03:55:33;;;;;;;9.10;5.50;;;;;;;17.62;74.18;97170.16;5046713;28;20199;-81
2023/09/20 03:58:03;;;;;;;6.07;5.23;;;;;;;17.58;74.57;97170.47;5044376;28;20200;-80
2023/09/20 04:00:31;;;;;;;7.70;5.40;;;;;;;17.59;73.96;97165.16;5045774;28;20669;-81
2023/09/20 04:02:58;;;;;;;8.43;5.70;;;;;;;17.71;74.06;97176.53;5044073;28;20224;-81
2023/09/20 04:05:27;;;;;;;7.33;5.30;;;;;;;17.74;73.76;97177.13;5045696;28;20239;-79
2023/09/20 04:08:12;;;;;;;9.47;5.70;;;;;;;17.77;73.65;97170.84;5044825;28;20900;-81
2023/09/20 04:10:40;;;;;;;7.33;5.20;;;;;;;17.85;73.56;97169.34;5044957;28;20282;-81
2023/09/20 04:13:08;;;;;;;11.40;5.63;;;;;;;17.89;73.34;97169.94;5047056;28;20218;-82
2023/09/20 04:15:38;;;;;;;9.07;6.03;;;;;;;18.13;72.83;97175.19;5045567;28;20289;-79
2023/09/20 04:18:08;;;;;;;10.67;6.37;;;;;;;18.04;73.02;97183.72;5045395;28;20333;-77
2023/09/20 04:20:37;;;;;;;13.90;6.07;;;;;;;18.00;72.71;97163.91;5042092;28;20672;-80
2023/09/20 04:23:06;;;;;;;12.70;6.43;;;;;;;18.07;72.43;97173.03;5053806;28;20591;-79
2023/09/20 04:25:34;;;;;;;16.87;6.67;;;;;;;18.04;72.64;97174.06;5045910;28;20313;-79
2023/09/20 04:28:01;;;;;;;11.07;6.80;;;;;;;18.26;72.11;97175.97;5060842;28;20191;-81
2023/09/20 04:30:30;;;;;;;10.37;5.53;;;;;;;18.29;71.49;97186.22;5045073;28;20202;-80
2023/09/20 04:32:59;;;;;;;11.80;7.07;;;;;;;18.19;71.77;97180.81;5043626;28;20254;-80
2023/09/20 04:35:36;;;;;;;11.83;6.23;;;;;;;17.98;72.56;97182.38;5029577;28;20569;-76
2023/09/20 04:38:08;;;;;;;11.10;6.37;;;;;;;18.03;72.20;97188.16;5041462;28;20200;-78
2023/09/20 04:40:35;;;;;;;11.10;6.57;;;;;;;18.11;72.01;97191.03;5044391;28;20210;-76
2023/09/20 04:43:03;;;;;;;11.90;7.40;;;;;;;18.07;72.41;97191.38;5047634;28;20191;-76
2023/09/20 04:45:30;;;;;;;10.77;6.60;;;;;;;18.02;72.06;97190.84;5047043;28;20653;-77
2023/09/20 04:47:57;;;;;;;18.53;6.57;;;;;;;18.17;71.45;97187.13;5048586;28;20694;-77
2023/09/20 04:50:25;;;;;;;9.17;6.57;;;;;;;18.20;71.51;97198.22;5046839;28;20227;-81
2023/09/20 04:52:54;;;;;;;10.57;6.57;;;;;;;17.98;72.15;97195.50;5048212;28;20190;-80
2023/09/20 04:55:21;;;;;;;7.83;5.90;;;;;;;17.97;71.82;97200.84;5046645;28;20275;-78
2023/09/20 04:57:48;;;;;;;9.57;7.17;;;;;;;17.74;72.67;97198.09;5048118;28;20261;-78
2023/09/20 05:00:19;;;;;;;12.27;8.10;;;;;;;17.69;73.19;97200.22;5048109;28;20211;-80
2023/09/20 05:02:47;;;;;;;10.57;6.37;;;;;;;17.74;72.91;97198.09;5047015;28;20730;-80
2023/09/20 05:05:16;;;;;;;8.40;6.50;;;;;;;17.84;73.16;97199.13;5048213;28;20358;-77
2023/09/20 05:07:44;;;;;;;13.30;6.77;;;;;;;17.22;73.04;97091.91;5046639;28;20259;-78
2023/09/20 05:10:12;;;;;;;8.93;6.07;;;;;;;17.88;72.72;97200.56;5048428;28;20202;-79
2023/09/20 05:12:39;;;;;;;7.37;5.40;;;;;;;17.78;73.30;97214.44;5046794;28;20203;-77
2023/09/20 05:15:06;;;;;;;10.83;6.30;;;;;;;17.78;73.67;97212.63;5047979;28;20662;-75
2023/09/20 05:17:34;;;;;;;10.23;6.10;;;;;;;17.66;74.16;97196.97;5049339;28;20337;-78
2023/09/20 05:20:02;;;;;;;8.20;5.57;;;;;;;17.92;73.82;97206.41;5048215;28;20210;-76
2023/09/20 05:22:30;;;;;;;10.67;6.10;;;;;;;18.10;73.12;97220.81;5049601;28;20937;-77
2023/09/20 05:24:58;;;;;;;10.03;5.97;;;;;;;18.12;73.22;97223.31;5030147;28;20239;-79
2023/09/20 05:27:25;;;;;;;7.93;5.40;;;;;;;18.21;73.16;97209.53;5048125;28;20283;-79
2023/09/20 05:29:53;;;;;;;6.97;5.83;;;;;;;18.19;73.83;97214.91;5042215;28;20670;-80
2023/09/20 05:32:23;;;;;;;7.90;5.90;;;;;;;18.15;73.86;97196.88;5047917;28;20239;-83
2023/09/20 05:34:52;;;;;;;7.00;5.33;;;;;;;18.23;73.61;97191.91;5049031;28;20295;-85
2023/09/20 05:37:21;;;;;;;8.27;5.77;;;;;;;18.50;73.48;97208.25;5049528;28;20207;-81
2023/09/20 05:39:49;;;;;;;10.00;7.00;;;;;;;18.60;73.21;97211.84;5052057;28;20291;-79
2023/09/20 05:42:17;;;;;;;8.57;5.80;;;;;;;18.40;72.75;97181.00;5047232;28;20714;-82
2023/09/20 05:44:44;;;;;;;10.63;5.47;;;;;;;19.00;71.68;97200.00;5050064;28;20599;-80
2023/09/20 05:47:11;;;;;;;8.13;5.93;;;;;;;19.40;70.33;97208.28;5047689;28;20197;-81
2023/09/20 05:49:39;;;;;;;11.13;5.77;;;;;;;19.62;69.60;97212.72;5049300;28;20194;-80
2023/09/20 05:52:06;;;;;;;9.67;5.97;;;;;;;19.78;68.93;97213.16;5046958;28;20203;-75
2023/09/20 05:54:35;;;;;;;16.50;7.40;;;;;;;20.05;67.90;97213.59;5046160;28;20204;-75
2023/09/20 05:57:02;;;;;;;6.17;5.10;;;;;;;19.99;68.19;97212.25;5048882;28;20185;-77
2023/09/20 05:59:30;;;;;;;9.83;5.20;;;;;;;19.48;69.97;97196.22;5045979;28;20193;-78
2023/09/20 06:01:58;;;;;;;6.70;5.43;;;;;;;19.49;70.36;97221.53;5048393;28;20848;-77
2023/09/20 06:04:25;;;;;;;8.67;5.40;;;;;;;19.95;69.23;97220.50;5047386;28;20277;-79
2023/09/20 06:06:54;;;;;;;7.20;4.80;;;;;;;20.16;68.11;97224.88;5047512;28;20226;-76
2023/09/20 06:09:21;;;;;;;7.50;5.60;;;;;;;20.32;67.67;97227.13;5048953;28;20225;-79
2023/09/20 06:11:50;;;;;;;7.40;5.10;;;;;;;20.42;67.05;97212.28;5047828;28;20707;-78
2023/09/20 06:14:17;;;;;;;10.23;5.80;;;;;;;20.50;67.29;97230.91;5049190;28;20201;-78
2023/09/20 06:16:44;;;;;;;8.53;6.70;;;;;;;20.76;66.68;97228.72;5030853;28;20333;-81
2023/09/20 06:19:11;;;;;;;12.73;5.60;;;;;;;21.03;65.87;97229.94;5028177;28;20206;-77
2023/09/20 06:21:41;;;;;;;9.90;5.60;;;;;;;21.08;64.35;97217.19;5026725;28;20708;-79
2023/09/20 06:24:12;;;;;;;9.73;5.27;;;;;;;21.40;64.16;97226.78;5027643;28;20249;-77
2023/09/20 06:26:42;;;;;;;7.27;4.97;;;;;;;21.47;63.00;97199.78;5027153;28;20744;-80
2023/09/20 06:29:09;;;;;;;6.30;4.43;;;;;;;21.36;63.23;97231.47;5027058;28;20712;-76
2023/09/20 06:31:37;;;;;;;7.93;4.77;;;;;;;21.48;63.27;97232.22;5027829;28;20203;-83
2023/09/20 06:34:05;;;;;;;8.70;4.93;;;;;;;21.54;62.46;97244.88;5024207;28;20233;-82
2023/09/20 06:36:33;;;;;;;9.07;4.97;;;;;;;21.73;62.33;97237.88;5026474;28;20206;-79
2023/09/20 06:39:00;;;;;;;8.03;4.60;;;;;;;21.75;61.72;97248.28;5026191;28;20199;-80
2023/09/20 06:41:28;;;;;;;11.47;6.00;;;;;;;21.72;61.21;97228.28;5027353;28;20660;-81
2023/09/20 06:43:57;;;;;;;8.43;4.40;;;;;;;22.07;60.60;97243.66;5025342;28;20594;-75
2023/09/20 06:46:25;;;;;;;7.20;4.50;;;;;;;22.11;59.59;97238.97;5009936;28;20243;-77
2023/09/20 06:48:55;;;;;;;6.73;4.47;;;;;;;22.09;59.87;97249.66;5027445;28;20561;-80
2023/09/20 06:51:23;;;;;;;9.03;5.23;;;;;;;22.29;59.48;97254.00;5029527;28;20209;-79
2023/09/20 06:53:50;;;;;;;6.87;5.03;;;;;;;22.04;59.37;97200.91;5031506;28;20208;-77
2023/09/20 06:56:18;;;;;;;6.70;4.10;;;;;;;22.42;59.30;97251.91;5028221;28;20238;-80
2023/09/20 06:58:45;;;;;;;9.27;4.53;;;;;;;22.55;58.55;97243.72;5029376;28;20202;-78
2023/09/20 07:01:14;;;;;;;10.67;5.00;;;;;;;22.69;58.19;97263.66;5026054;28;20204;-80
2023/09/20 07:03:42;;;;;;;6.77;4.80;;;;;;;22.78;57.12;97261.00;5025335;28;20644;-80
2023/09/20 07:06:09;;;;;;;10.77;5.30;;;;;;;22.80;57.04;97232.66;5027494;28;20285;-78
2023/09/20 07:08:37;;;;;;;11.33;5.00;;;;;;;22.92;57.45;97265.00;5025898;28;20206;-81
2023/09/20 07:11:08;;;;;;;7.13;4.47;;;;;;;22.70;58.04;97252.09;5027191;28;20207;-79
2023/09/20 07:13:35;;;;;;;4.87;4.37;;;;;;;22.44;58.37;97236.78;5026116;28;20201;-77
2023/09/20 07:16:05;;;;;;;8.43;4.23;;;;;;;22.77;57.86;97250.59;5027507;28;20660;-78
2023/09/20 07:18:33;;;;;;;7.37;4.97;;;;;;;22.88;57.61;97269.75;5026602;28;20197;-77
2023/09/20 07:21:01;;;;;;;11.07;5.27;;;;;;;23.14;56.93;97272.66;5026644;28;20206;-77
2023/09/20 07:23:31;;;;;;;10.03;5.03;;;;;;;23.39;56.55;97254.38;5028716;28;20236;-75
2023/09/20 07:26:01;;;;;;;5.67;4.10;;;;;;;23.58;55.99;97272.00;5027477;28;20267;-80
2023/09/20 07:29:09;;;;;;;5.87;4.10;;;;;;;23.85;55.74;97279.13;5028528;28;20312;-75
2023/09/20 07:32:25;;;;;;;8.37;4.57;;;;;;;23.91;54.44;97278.53;5027636;28;20273;-75
2023/09/20 07:34:59;;;;;;;10.13;5.20;;;;;;;23.86;54.17;97276.34;5026407;28;20198;-82
2023/09/20 07:37:29;;;;;;;7.27;4.73;;;;;;;24.03;53.28;97270.28;5041521;28;20208;-74
2023/09/20 07:39:57;;;;;;;9.07;5.70;;;;;;;24.05;53.42;97276.28;5050043;28;20193;-75
2023/09/20 07:42:24;;;;;;;8.07;4.63;;;;;;;24.14;53.86;97275.41;5047457;28;20197;-75
2023/09/20 07:44:51;;;;;;;9.60;5.53;;;;;;;24.19;53.85;97280.25;5046898;28;20293;-77
2023/09/20 07:47:20;;;;;;;9.33;6.90;;;;;;;24.11;53.83;97269.56;5044025;28;20223;-75
2023/09/20 07:49:47;;;;;;;6.47;4.77;;;;;;;23.87;54.00;97278.00;5045978;28;20200;-76
2023/09/20 07:52:15;;;;;;;5.13;4.30;;;;;;;23.97;53.70;97270.84;5043682;28;20579;-78
2023/09/20 07:54:42;;;;;;;12.30;4.73;;;;;;;24.06;53.24;97262.06;5047086;28;20279;-78
2023/09/20 07:57:10;;;;;;;6.40;4.27;;;;;;;24.16;52.96;97268.13;5042696;28;20786;-76
2023/09/20 07:59:37;;;;;;;7.70;4.87;;;;;;;24.25;52.43;97269.88;5046017;28;20294;-77
2023/09/20 08:02:04;;;;;;;6.90;4.10;;;;;;;24.09;52.57;97256.47;5046203;28;20292;-78
2023/09/20 08:04:37;;;;;;;8.93;5.40;;;;;;;24.00;53.04;97254.69;5045196;28;20604;-82
2023/09/20 08:07:06;;;;;;;6.50;4.30;;;;;;;24.15;51.96;97261.16;5046454;28;20281;-82
2023/09/20 08:09:34;;;;;;;6.63;4.47;;;;;;;24.18;51.88;97271.47;5044951;28;20206;-79
2023/09/20 08:12:01;;;;;;;11.50;4.77;;;;;;;24.44;51.10;97250.38;5046704;28;20216;-83
2023/09/20 08:14:28;;;;;;;8.30;4.63;;;;;;;24.65;51.39;97263.34;5045677;28;20199;-78
2023/09/20 08:19:42;;;;;;;7.80;4.20;;;;;;;24.87;49.70;97269.03;5050131;28;20195;-79
2023/09/20 08:22:10;;;;;;;5.83;4.37;;;;;;;24.97;49.88;97271.63;5060403;28;20203;-77
2023/09/20 09:00:46;;;;;;;10.50;4.87;;;;;;;25.91;46.16;97233.59;5047945;28;20207;-83
2023/09/20 09:03:15;;;;;;;16.53;6.47;;;;;;;25.96;46.71;97233.94;5048595;28;20571;-80
2023/09/20 09:05:43;;;;;;;8.43;4.67;;;;;;;26.05;46.37;97240.94;5046818;28;20198;-80
2023/09/20 09:08:13;;;;;;;7.77;4.53;;;;;;;25.92;46.08;97208.72;5058337;28;20197;-75
2023/09/20 09:10:40;;;;;;;9.93;4.40;;;;;;;26.15;45.70;97244.31;5064739;28;20298;-76
2023/09/20 09:13:47;;;;;;;7.87;4.87;;;;;;;26.10;45.05;97241.31;5034337;28;20536;-80
2023/09/20 09:17:11;;;;;;;7.03;3.20;;;;;;;26.16;45.39;97239.84;5028847;28;20229;-78
2023/09/20 09:19:52;;;;;;;8.33;3.80;;;;;;;26.23;45.44;97222.28;5029458;28;20209;-76
2023/09/20 09:22:23;;;;;;;5.97;3.43;;;;;;;26.30;44.74;97224.09;5028119;28;20201;-77
2023/09/20 09:24:51;;;;;;;4.97;2.73;;;;;;;26.46;44.15;97223.31;5029986;28;20202;-77
2023/09/20 09:27:18;;;;;;;7.23;3.90;;;;;;;26.55;43.92;97217.00;5025860;28;20249;-77
2023/09/20 09:29:46;;;;;;;6.43;2.90;;;;;;;26.39;44.77;97209.84;5039576;28;20607;-81
2023/09/20 09:32:14;;;;;;;8.73;3.20;;;;;;;26.51;44.47;97216.50;5048247;28;20278;-77
2023/09/20 09:34:41;;;;;;;8.97;3.73;;;;;;;26.81;44.37;97216.91;5049067;28;20200;-80
2023/09/20 09:37:10;;;;;;;8.47;3.20;;;;;;;26.97;43.88;97216.88;5049506;28;20201;-82
2023/09/20 09:39:39;;;;;;;9.07;3.23;;;;;;;27.26;42.97;97217.19;5031453;28;20271;-79
2023/09/20 09:42:09;;;;;;;12.00;3.90;;;;;;;27.34;43.49;97214.53;5047954;28;20194;-78
2023/09/20 09:44:48;;;;;;;5.33;3.23;;;;;;;27.32;42.96;97206.69;5058642;28;20210;-74
2023/09/20 09:47:18;;;;;;;9.13;3.40;;;;;;;27.38;43.26;97211.38;5053519;28;20616;-80
2023/09/20 09:49:48;;;;;;;6.00;2.93;;;;;;;27.44;43.52;97211.69;5053308;28;20285;-80
2023/09/20 09:52:17;;;;;;;5.40;2.97;;;;;;;27.19;43.16;97211.72;5055962;28;20190;-81
2023/09/20 09:54:47;;;;;;;11.00;5.53;;;;;;;26.49;44.25;97186.63;5061173;28;20329;-81
2023/09/20 09:57:14;;;;;;;11.27;5.30;;;;;;;26.70;43.88;97207.38;5057803;28;20194;-75
2023/09/20 09:59:41;;;;;;;11.07;5.33;;;;;;;26.91;43.68;97190.97;5052324;28;20197;-77
2023/09/20 10:02:17;;;;;;;7.50;3.77;;;;;;;27.15;43.29;97207.72;5047753;28;20598;-76
2023/09/20 10:05:03;;;;;;;8.13;3.20;;;;;;;27.14;43.17;97198.06;5047460;28;20201;-81
2023/09/20 10:07:38;;;;;;;11.93;5.40;;;;;;;27.41;43.00;97199.53;5048951;28;20618;-78
2023/09/20 10:10:13;;;;;;;4.60;3.03;;;;;;;27.49;42.32;97190.72;5046640;28;20301;-83
2023/09/20 10:12:45;;;;;;;10.37;4.30;;;;;;;27.69;41.82;97189.31;5048474;28;20447;-78
2023/09/20 10:15:15;;;;;;;9.33;3.27;;;;;;;27.79;42.63;97188.09;5063279;28;20314;-75
2023/09/20 10:17:51;;;;;;;4.20;2.83;;;;;;;27.84;41.88;97184.94;5046435;28;20232;-81
2023/09/20 10:20:19;;;;;;;5.90;3.10;;;;;;;27.80;41.65;97183.63;5049202;28;20690;-76
2023/09/20 10:22:51;;;;;;;7.53;3.87;;;;;;;27.75;42.32;97175.31;5046968;28;20197;-73
2023/09/20 10:25:32;;;;;;;6.23;3.20;;;;;;;27.69;41.88;97163.53;5049845;28;20574;-79
2023/09/20 10:28:08;;;;;;;4.83;2.90;;;;;;;27.75;41.82;97167.31;5046174;28;20229;-74
2023/09/20 10:31:07;;;;;;;11.50;4.20;;;;;;;27.97;42.98;97187.88;5047007;28;20217;-77
2023/09/20 10:33:45;;;;;;;7.40;2.93;;;;;;;28.05;41.32;97166.53;5048336;28;20210;-78
2023/09/20 10:36:18;;;;;;;5.80;3.07;;;;;;;28.20;41.20;97164.78;5046634;28;20638;-79
2023/09/20 10:38:46;;;;;;;8.07;3.67;;;;;;;28.08;41.74;97175.00;5047922;28;20743;-78
2023/09/20 10:41:16;;;;;;;9.93;4.60;;;;;;;28.11;42.52;97163.16;5053724;28;20684;-77
2023/09/20 10:43:48;;;;;;;4.73;2.97;;;;;;;28.16;41.35;97168.78;5053747;28;20206;-80
2023/09/20 10:46:19;;;;;;;6.20;2.87;;;;;;;28.24;40.92;97171.41;5047494;28;20209;-76
2023/09/20 10:48:50;;;;;;;3.57;2.43;;;;;;;28.27;41.09;97162.25;5046320;28;20206;-79
2023/09/20 10:51:56;;;;;;;4.40;3.00;;;;;;;27.87;41.86;97152.63;5047398;28;20209;-76
2023/09/20 10:54:26;;;;;;;5.00;3.90;;;;;;;28.17;40.84;97155.28;5023926;28;20289;-80
2023/09/20 10:56:55;;;;;;;5.60;3.60;;;;;;;28.38;40.85;97159.97;5024717;28;20228;-79
2023/09/20 10:59:25;;;;;;;6.57;2.80;;;;;;;28.66;39.99;97166.47;5036818;28;20216;-77
2023/09/20 11:01:59;;;;;;;7.83;3.03;;;;;;;28.79;39.93;97145.34;5045681;28;20221;-76
2023/09/20 11:04:28;;;;;;;7.80;4.10;;;;;;;28.44;40.96;97145.13;5045763;28;20736;-75
2023/09/20 11:06:59;;;;;;;9.57;3.33;;;;;;;28.60;40.13;97139.69;5045344;28;20226;-75
2023/09/20 11:09:31;;;;;;;4.00;2.70;;;;;;;28.67;40.01;97152.13;5061637;28;20206;-77
2023/09/20 11:12:06;;;;;;;7.53;3.37;;;;;;;28.68;40.48;97145.81;5046088;28;20208;-76
2023/09/20 11:14:44;;;;;;;4.73;2.50;;;;;;;28.79;39.54;97160.53;5045508;28;20196;-75
2023/09/20 11:17:16;;;;;;;6.67;2.53;;;;;;;28.97;39.65;97159.16;5046642;28;20315;-76
2023/09/20 11:19:45;;;;;;;8.57;3.50;;;;;;;29.09;40.05;97153.41;5045188;28;20221;-81
2023/09/20 11:22:15;;;;;;;4.30;2.30;;;;;;;28.69;40.45;97155.44;5046452;28;20300;-75
2023/09/20 11:24:42;;;;;;;4.67;2.47;;;;;;;28.68;40.26;97142.28;5046048;28;20251;-75
2023/09/20 11:27:11;;;;;;;4.07;2.20;;;;;;;28.71;39.56;97131.25;5046779;28;20226;-77
2023/09/20 11:29:40;;;;;;;6.47;2.60;;;;;;;28.88;39.08;97136.28;5048697;28;20190;-76
2023/09/20 11:32:11;;;;;;;7.97;2.77;;;;;;;29.06;39.50;97135.91;5046979;28;20727;-79
2023/09/20 11:34:43;;;;;;;4.60;3.37;;;;;;;29.30;39.00;97145.53;5047501;28;20209;-77
2023/09/20 11:37:14;;;;;;;7.53;3.40;;;;;;;29.40;39.19;97138.09;5045839;28;20296;-80
2023/09/20 11:39:43;;;;;;;8.07;3.97;;;;;;;29.47;38.54;97133.69;5047395;28;20252;-78
2023/09/20 11:42:12;;;;;;;7.43;4.13;;;;;;;29.20;39.18;97137.00;5046722;28;20203;-77
2023/09/20 11:44:39;;;;;;;8.23;3.53;;;;;;;29.47;38.76;97123.81;5044544;28;20251;-78
2023/09/20 11:47:07;;;;;;;6.43;3.17;;;;;;;29.50;38.31;97127.94;5046854;28;20656;-77
2023/09/20 11:49:37;;;;;;;4.67;2.90;;;;;;;29.38;37.92;97118.75;5045275;28;20252;-82
2023/09/20 11:52:04;;;;;;;7.20;2.90;;;;;;;28.80;39.32;97115.03;5050566;28;20290;-79
2023/09/20 11:54:34;;;;;;;4.13;2.37;;;;;;;28.57;39.51;97118.72;5047819;28;20737;-81
2023/09/20 11:57:04;;;;;;;12.80;3.30;;;;;;;28.85;40.30;97112.63;5050534;28;20684;-76
2023/09/20 11:59:40;;;;;;;6.10;2.60;;;;;;;28.70;39.48;97098.47;5050227;28;20677;-77
2023/09/20 12:02:12;;;;;;;6.07;3.43;;;;;;;29.02;38.70;97101.81;5048944;28;20271;-76
2023/09/20 12:04:39;;;;;;;4.50;2.43;;;;;;;28.71;39.61;97089.44;5050292;28;20268;-77
2023/09/20 12:07:09;;;;;;;4.53;2.40;;;;;;;28.77;39.07;97115.38;5048944;28;20225;-77
2023/09/20 12:09:36;;;;;;;4.83;2.30;;;;;;;28.61;39.38;97099.53;5050610;28;20197;-77
2023/09/20 12:12:05;;;;;;;3.70;2.60;;;;;;;28.55;40.67;97102.06;5049850;28;20659;-75
2023/09/20 12:14:37;;;;;;;5.07;2.80;;;;;;;28.63;40.30;97108.19;5051693;28;20190;-74
2023/09/20 12:17:07;;;;;;;10.43;3.57;;;;;;;28.79;40.25;97100.03;5054894;28;20237;-77
2023/09/20 12:19:34;;;;;;;7.27;2.97;;;;;;;28.74;40.12;97102.41;5049945;28;20206;-76
2023/09/20 12:22:01;;;;;;;8.00;2.93;;;;;;;28.83;39.09;97090.66;5049963;28;20205;-78
2023/09/20 12:24:28;;;;;;;4.10;2.40;;;;;;;28.76;38.38;97095.06;5031232;28;20202;-76